createdAt,value
2022-12-10T00:00:52.882Z,54.83
2022-12-10T00:02:40.756Z,54.17
2022-12-10T00:04:28.369Z,62.08
2022-12-10T00:06:24.085Z,65.20
2022-12-10T00:08:11.211Z,56.15
2022-12-10T00:09:58.646Z,66.72
2022-12-10T00:11:45.708Z,46.15
2022-12-10T00:13:34.548Z,68.00
2022-12-10T00:15:21.892Z,53.47
2022-12-10T00:17:12.899Z,77.00
2022-12-10T00:19:00.862Z,50.50
2022-12-10T00:20:48.420Z,49.17
2022-12-10T00:22:35.571Z,52.10
2022-12-10T00:24:22.547Z,49.08
2022-12-10T00:26:21.205Z,48.47
2022-12-10T00:28:08.504Z,60.72
2022-12-10T00:29:55.538Z,70.50
2022-12-10T00:31:43.277Z,50.60
2022-12-10T00:33:30.338Z,48.30
2022-12-10T00:35:17.604Z,63.77
2022-12-10T00:37:04.892Z,47.05
2022-12-10T00:38:52.854Z,56.95
2022-12-10T00:42:28.151Z,48.88
2022-12-10T00:44:16.106Z,51.20
2022-12-10T00:46:03.837Z,52.13
2022-12-10T00:49:38.134Z,46.33
2022-12-10T00:51:26.672Z,51.47
2022-12-10T00:53:14.058Z,65.75
2022-12-10T00:55:01.062Z,59.73
2022-12-10T00:56:48.427Z,46.47
2022-12-10T00:58:36.677Z,59.22
2022-12-10T01:00:24.228Z,60.58
2022-12-10T01:02:12.217Z,51.92
2022-12-10T01:04:03.316Z,56.38
2022-12-10T01:05:50.298Z,57.17
2022-12-10T01:07:37.390Z,44.37
2022-12-10T01:09:26.923Z,42.53
2022-12-10T01:11:16.295Z,41.95
2022-12-10T01:13:03.910Z,56.42
2022-12-10T01:16:38.806Z,48.65
2022-12-10T01:18:25.887Z,59.75
2022-12-10T01:20:13.454Z,54.47
2022-12-10T01:22:01.089Z,50.42
2022-12-10T01:23:51.651Z,56.22
2022-12-10T01:25:39.905Z,50.03
2022-12-10T01:27:27.931Z,57.78
2022-12-10T01:29:17.482Z,49.15
2022-12-10T01:31:10.551Z,58.83
2022-12-10T01:32:58.418Z,50.88
2022-12-10T01:34:45.540Z,54.83
2022-12-10T01:36:35.558Z,56.40
2022-12-10T01:38:23.396Z,61.22
2022-12-10T01:40:11.150Z,53.67
2022-12-10T01:42:01.047Z,53.63
2022-12-10T01:44:04.682Z,49.88
2022-12-10T01:45:51.993Z,54.33
2022-12-10T01:47:39.879Z,57.90
2022-12-10T01:49:39.291Z,54.95
2022-12-10T01:51:28.995Z,55.40
2022-12-10T01:53:17.287Z,60.80
2022-12-10T01:55:28.121Z,49.42
2022-12-10T01:57:17.687Z,48.38
2022-12-10T01:59:06.518Z,50.85
2022-12-10T02:01:07.574Z,47.25
2022-12-10T02:03:05.718Z,53.08
2022-12-10T02:05:15.142Z,49.33
2022-12-10T02:07:34.958Z,43.25
2022-12-10T02:09:49.270Z,42.92
2022-12-10T02:11:53.537Z,44.67
2022-12-10T02:13:43.671Z,53.95
2022-12-10T02:15:33.993Z,47.55
2022-12-10T02:17:28.855Z,53.88
2022-12-10T02:19:31.838Z,51.10
2022-12-10T02:21:30.785Z,56.20
2022-12-10T02:23:27.754Z,55.15
2022-12-10T02:25:18.034Z,50.03
2022-12-10T02:27:19.319Z,58.47
2022-12-10T02:29:25.641Z,49.90
2022-12-10T02:31:18.134Z,48.75
2022-12-10T02:33:08.765Z,53.85
2022-12-10T02:35:02.424Z,49.53
2022-12-10T02:36:54.582Z,52.10
2022-12-10T02:38:43.287Z,51.58
2022-12-10T02:40:34.716Z,52.72
2022-12-10T02:42:26.188Z,54.83
2022-12-10T02:44:17.706Z,49.05
2022-12-10T02:46:07.457Z,52.22
2022-12-10T02:47:59.275Z,49.25
2022-12-10T02:49:56.861Z,51.35
2022-12-10T02:51:44.337Z,50.45
2022-12-10T02:53:31.843Z,48.83
2022-12-10T02:55:22.606Z,49.87
2022-12-10T02:57:45.393Z,55.80
2022-12-10T02:59:44.312Z,51.17
2022-12-10T03:02:05.204Z,52.95
2022-12-10T03:04:10.501Z,51.25
2022-12-10T03:06:04.120Z,51.63
2022-12-10T03:07:58.973Z,52.08
2022-12-10T03:09:55.227Z,48.65
2022-12-10T03:11:44.500Z,44.65
2022-12-10T03:13:59.928Z,48.88
2022-12-10T03:15:50.756Z,42.65
2022-12-10T03:17:40.692Z,48.63
2022-12-10T03:19:37.216Z,46.17
2022-12-10T03:21:27.625Z,33.27
2022-12-10T03:23:18.395Z,42.25
2022-12-10T03:25:06.572Z,43.25
2022-12-10T03:26:53.906Z,40.33
2022-12-10T03:28:47.135Z,44.42
2022-12-10T03:30:37.175Z,42.63
2022-12-10T03:32:27.728Z,41.35
2022-12-10T03:34:15.186Z,43.70
2022-12-10T03:36:02.469Z,47.17
2022-12-10T03:37:50.698Z,45.55
2022-12-10T03:41:25.468Z,45.90
2022-12-10T03:43:15.914Z,48.25
2022-12-10T03:45:03.230Z,40.72
2022-12-10T03:46:51.475Z,44.40
2022-12-10T03:48:38.743Z,44.40
2022-12-10T03:50:25.812Z,45.47
2022-12-10T03:52:13.105Z,45.50
2022-12-10T03:54:00.411Z,44.97
2022-12-10T03:55:47.360Z,42.38
2022-12-10T03:57:35.263Z,41.92
2022-12-10T03:59:22.719Z,42.15
2022-12-10T04:01:09.850Z,43.80
2022-12-10T04:02:56.848Z,45.67
2022-12-10T04:04:44.259Z,47.40
2022-12-10T04:06:31.701Z,46.90
2022-12-10T04:08:18.831Z,40.28
2022-12-10T04:10:07.125Z,43.70
2022-12-10T04:11:58.672Z,45.67
2022-12-10T04:14:04.425Z,43.58
2022-12-10T04:16:10.462Z,45.42
2022-12-10T04:17:57.415Z,47.00
2022-12-10T04:19:44.671Z,40.57
2022-12-10T04:21:52.550Z,45.13
2022-12-10T04:23:58.564Z,43.63
2022-12-10T04:26:04.053Z,44.78
2022-12-10T04:27:51.614Z,41.88
2022-12-10T04:29:38.784Z,44.75
2022-12-10T04:31:25.753Z,44.45
2022-12-10T04:33:13.149Z,36.33
2022-12-10T04:35:00.783Z,43.77
2022-12-10T04:36:48.839Z,43.60
2022-12-10T04:38:36.116Z,43.83
2022-12-10T04:40:23.069Z,44.90
2022-12-10T04:42:10.511Z,45.37
2022-12-10T04:45:45.186Z,41.17
2022-12-10T04:47:32.327Z,42.22
2022-12-10T04:49:19.686Z,48.75
2022-12-10T04:51:06.686Z,47.08
2022-12-10T04:52:53.689Z,43.27
2022-12-10T04:54:42.329Z,46.42
2022-12-10T04:56:29.363Z,44.88
2022-12-10T04:58:16.301Z,43.97
2022-12-10T05:00:04.586Z,44.38
2022-12-10T05:03:38.973Z,42.33
2022-12-10T05:05:26.644Z,43.03
2022-12-10T05:07:13.615Z,43.80
2022-12-10T05:09:00.937Z,45.63
2022-12-10T05:10:48.227Z,46.58
2022-12-10T05:12:35.540Z,47.70
2022-12-10T05:14:22.575Z,48.25
2022-12-10T05:16:13.075Z,37.70
2022-12-10T05:18:00.171Z,44.80
2022-12-10T05:19:47.223Z,46.80
2022-12-10T05:21:53.316Z,42.78
2022-12-10T05:23:43.481Z,46.13
2022-12-10T05:25:30.470Z,45.38
2022-12-10T05:27:17.828Z,47.60
2022-12-10T05:29:05.074Z,47.47
2022-12-10T05:30:52.152Z,48.42
2022-12-10T05:32:39.763Z,47.22
2022-12-10T05:34:27.221Z,48.70
2022-12-10T05:36:16.455Z,48.40
2022-12-10T05:38:03.800Z,47.15
2022-12-10T05:39:50.809Z,46.42
2022-12-10T05:41:39.934Z,49.57
2022-12-10T05:43:28.060Z,49.47
2022-12-10T05:45:15.046Z,48.08
2022-12-10T05:47:02.057Z,37.22
2022-12-10T05:48:50.113Z,51.88
2022-12-10T05:52:24.082Z,41.78
2022-12-10T05:54:11.509Z,50.55
2022-12-10T05:56:11.090Z,52.17
2022-12-10T05:57:58.908Z,50.63
2022-12-10T05:59:46.328Z,47.40
2022-12-10T06:01:35.845Z,51.08
2022-12-10T06:03:22.970Z,52.67
2022-12-10T06:05:10.735Z,51.42
2022-12-10T06:06:57.705Z,51.03
2022-12-10T06:08:44.724Z,50.33
2022-12-10T06:10:32.378Z,52.15
2022-12-10T06:12:19.866Z,47.88
2022-12-10T06:14:07.010Z,49.17
2022-12-10T06:15:54.421Z,52.00
2022-12-10T06:17:41.436Z,51.55
2022-12-10T06:19:29.164Z,50.97
2022-12-10T06:21:17.720Z,50.65
2022-12-10T06:23:05.025Z,50.15
2022-12-10T06:24:52.031Z,49.08
2022-12-10T06:26:40.695Z,49.58
2022-12-10T06:28:27.738Z,39.92
2022-12-10T06:30:14.813Z,48.25
2022-12-10T06:33:50.018Z,43.85
2022-12-10T06:35:38.723Z,46.15
2022-12-10T06:37:26.216Z,42.72
2022-12-10T06:39:13.833Z,49.53
2022-12-10T06:41:01.584Z,48.85
2022-12-10T06:44:38.281Z,40.17
2022-12-10T06:46:28.564Z,45.30
2022-12-10T06:48:16.058Z,47.78
2022-12-10T06:50:03.332Z,33.20
2022-12-10T06:51:50.376Z,45.75
2022-12-10T06:53:38.768Z,48.40
2022-12-10T06:55:25.895Z,48.70
2022-12-10T06:57:12.899Z,46.63
2022-12-10T06:59:00.242Z,46.85
2022-12-10T07:00:47.501Z,47.50
2022-12-10T07:02:35.149Z,46.22
2022-12-10T07:06:11.289Z,49.25
2022-12-10T07:07:58.396Z,44.90
2022-12-10T07:09:45.728Z,46.08
2022-12-10T07:11:33.114Z,47.47
2022-12-10T07:13:20.110Z,48.97
2022-12-10T07:15:08.022Z,44.22
2022-12-10T07:16:55.101Z,46.47
2022-12-10T07:18:46.175Z,44.23
2022-12-10T07:20:36.280Z,46.00
2022-12-10T07:22:23.261Z,48.77
2022-12-10T07:24:19.191Z,47.80
2022-12-10T07:26:06.664Z,44.33
2022-12-10T07:27:57.662Z,46.42
2022-12-10T07:29:45.525Z,48.42
2022-12-10T07:33:20.593Z,45.40
2022-12-10T07:35:07.850Z,44.87
2022-12-10T07:36:56.160Z,44.67
2022-12-10T07:38:43.372Z,51.00
2022-12-10T07:40:30.481Z,52.22
2022-12-10T07:42:17.892Z,49.83
2022-12-10T07:44:07.752Z,50.38
2022-12-10T07:45:54.932Z,47.95
2022-12-10T07:47:42.230Z,44.33
2022-12-10T07:49:30.859Z,37.25
2022-12-10T07:51:21.634Z,44.90
2022-12-10T07:53:09.038Z,47.30
2022-12-10T07:54:56.043Z,44.80
2022-12-10T07:56:43.316Z,47.23
2022-12-10T07:58:30.721Z,44.80
2022-12-10T08:00:18.128Z,50.33
2022-12-10T08:02:08.707Z,97.00
2022-12-10T08:03:57.721Z,57.70
2022-12-10T08:05:44.830Z,62.72
2022-12-10T08:07:31.991Z,50.95
2022-12-10T08:09:19.420Z,55.35
2022-12-10T08:11:07.451Z,47.65
2022-12-10T08:12:54.474Z,54.25
2022-12-10T08:14:42.377Z,48.78
2022-12-10T08:16:32.096Z,43.08
2022-12-10T08:18:19.557Z,44.65
2022-12-10T08:20:07.991Z,44.05
2022-12-10T08:21:55.283Z,45.22
2022-12-10T08:23:43.521Z,45.95
2022-12-10T08:25:33.781Z,45.38
2022-12-10T08:27:24.711Z,46.03
2022-12-10T08:29:12.324Z,44.35
2022-12-10T08:30:59.815Z,43.35
2022-12-10T08:32:46.928Z,66.40
2022-12-10T08:34:33.953Z,53.23
2022-12-10T08:36:22.206Z,42.58
2022-12-10T08:39:56.723Z,33.33
2022-12-10T08:41:46.543Z,43.35
2022-12-10T08:43:34.428Z,42.92
2022-12-10T08:47:11.049Z,39.55
2022-12-10T08:48:58.371Z,41.63
2022-12-10T08:50:46.256Z,45.53
2022-12-10T08:54:21.253Z,39.33
2022-12-10T08:56:12.410Z,39.38
2022-12-10T08:58:01.136Z,38.70
2022-12-10T08:59:48.613Z,41.30
2022-12-10T09:01:35.754Z,41.22
2022-12-10T09:03:23.166Z,42.25
2022-12-10T09:05:10.486Z,39.75
2022-12-10T09:06:58.074Z,39.90
2022-12-10T09:10:37.843Z,41.35
2022-12-10T09:12:25.176Z,46.47
2022-12-10T09:14:13.698Z,41.47
2022-12-10T09:16:01.217Z,41.70
2022-12-10T09:17:48.644Z,39.40
2022-12-10T09:19:37.089Z,47.03
2022-12-10T09:21:24.195Z,45.03
2022-12-10T09:23:11.814Z,47.33
2022-12-10T09:25:02.315Z,43.45
2022-12-10T09:26:50.212Z,44.70
2022-12-10T09:28:38.414Z,44.63
2022-12-10T09:30:26.335Z,48.42
2022-12-10T09:32:13.996Z,48.20
2022-12-10T09:34:01.435Z,47.10
2022-12-10T09:35:48.932Z,43.40
2022-12-10T09:37:36.014Z,34.33
2022-12-10T09:39:23.589Z,41.50
2022-12-10T09:41:11.555Z,44.63
2022-12-10T09:43:11.297Z,46.60
2022-12-10T09:45:35.495Z,48.67
2022-12-10T09:47:31.339Z,43.55
2022-12-10T09:49:22.538Z,39.30
2022-12-10T09:51:26.573Z,40.92
2022-12-10T09:53:18.835Z,40.28
2022-12-10T09:55:15.149Z,41.17
2022-12-10T09:57:04.817Z,43.58
2022-12-10T09:58:52.819Z,41.35
2022-12-10T10:00:41.502Z,40.53
2022-12-10T10:02:31.284Z,41.97
2022-12-10T10:04:19.259Z,42.10
2022-12-10T10:06:11.065Z,33.50
2022-12-10T10:08:05.624Z,43.08
2022-12-10T10:10:00.671Z,42.72
2022-12-10T10:11:48.417Z,52.08
2022-12-10T10:13:50.474Z,62.13
2022-12-10T10:15:41.363Z,120.97
2022-12-10T10:17:38.909Z,38.50
2022-12-10T10:19:34.111Z,69.72
2022-12-10T10:21:39.844Z,36.38
2022-12-10T10:23:27.047Z,34.88
2022-12-10T10:25:19.215Z,37.05
2022-12-10T10:27:15.938Z,38.70
2022-12-10T10:29:07.658Z,39.65
2022-12-10T10:30:55.457Z,35.03
2022-12-10T10:32:42.987Z,37.75
2022-12-10T10:34:30.025Z,37.05
2022-12-10T10:36:17.078Z,40.77
2022-12-10T10:38:14.638Z,39.90
2022-12-10T10:40:01.769Z,36.85
2022-12-10T10:41:57.921Z,38.10
2022-12-10T10:43:46.219Z,35.43
2022-12-10T10:45:52.010Z,36.78
2022-12-10T10:47:39.083Z,36.78
2022-12-10T10:49:29.497Z,35.28
2022-12-10T10:51:26.727Z,38.63
2022-12-10T10:53:53.103Z,36.75
2022-12-10T10:55:43.623Z,35.90
2022-12-10T10:57:37.052Z,35.88
2022-12-10T10:59:38.587Z,35.13
2022-12-10T11:01:43.645Z,35.13
2022-12-10T11:03:33.691Z,38.72
2022-12-10T11:05:35.390Z,35.03
2022-12-10T11:07:41.076Z,37.40
2022-12-10T11:09:31.062Z,37.10
2022-12-10T11:11:26.511Z,38.30
2022-12-10T11:13:28.592Z,39.08
2022-12-10T11:15:32.746Z,40.92
2022-12-10T11:17:22.683Z,42.17
2022-12-10T11:19:24.716Z,45.20
2022-12-10T11:21:14.688Z,43.08
2022-12-10T11:23:09.717Z,40.15
2022-12-10T11:24:58.683Z,44.95
2022-12-10T11:26:51.465Z,41.83
2022-12-10T11:28:57.219Z,42.97
2022-12-10T11:31:00.340Z,43.67
2022-12-10T11:33:11.932Z,39.80
2022-12-10T11:35:39.935Z,38.25
2022-12-10T11:37:38.434Z,36.83
2022-12-10T11:39:46.040Z,36.80
2022-12-10T11:42:07.861Z,39.20
2022-12-10T11:44:15.766Z,40.47
2022-12-10T11:46:07.062Z,45.88
2022-12-10T11:48:14.898Z,41.10
2022-12-10T11:50:30.839Z,40.45
2022-12-10T11:52:23.725Z,46.65
2022-12-10T11:54:40.031Z,48.50
2022-12-10T11:56:46.123Z,40.20
2022-12-10T11:58:50.020Z,37.08
2022-12-10T12:01:14.467Z,41.75
2022-12-10T12:03:47.970Z,34.60
2022-12-10T12:05:50.425Z,47.38
2022-12-10T12:07:54.740Z,39.13
2022-12-10T12:09:51.554Z,42.15
2022-12-10T12:11:56.755Z,54.97
2022-12-10T12:13:52.725Z,43.45
2022-12-10T12:16:07.630Z,39.35
2022-12-10T12:18:01.792Z,50.10
2022-12-10T12:19:54.317Z,40.10
2022-12-10T12:21:43.658Z,39.88
2022-12-10T12:23:39.544Z,37.80
2022-12-10T12:25:39.761Z,53.30
2022-12-10T12:27:37.972Z,77.53
2022-12-10T12:29:30.839Z,41.45
2022-12-10T12:31:38.458Z,34.55
2022-12-10T12:33:59.239Z,33.55
2022-12-10T12:35:52.899Z,33.97
2022-12-10T12:37:55.508Z,36.38
2022-12-10T12:39:51.957Z,33.85
2022-12-10T12:41:47.974Z,39.65
2022-12-10T12:43:37.786Z,38.25
2022-12-10T12:45:40.389Z,40.72
2022-12-10T12:47:46.990Z,35.70
2022-12-10T12:49:39.000Z,47.83
2022-12-10T12:51:42.994Z,39.75
2022-12-10T12:53:35.277Z,44.30
2022-12-10T12:55:40.472Z,47.88
2022-12-10T12:57:27.946Z,48.63
2022-12-10T12:59:39.312Z,45.28
2022-12-10T13:01:52.266Z,43.83
2022-12-10T13:03:44.404Z,55.08
2022-12-10T13:05:36.162Z,50.45
2022-12-10T13:07:23.194Z,61.65
2022-12-10T13:09:16.828Z,53.53
2022-12-10T13:11:13.434Z,47.50
2022-12-10T13:13:28.680Z,60.45
2022-12-10T13:15:22.891Z,53.42
2022-12-10T13:17:15.873Z,49.00
2022-12-10T13:19:21.613Z,46.78
2022-12-10T13:21:29.347Z,44.17
2022-12-10T13:23:25.739Z,43.80
2022-12-10T13:25:14.881Z,36.33
2022-12-10T13:27:08.159Z,40.15
2022-12-10T13:29:11.303Z,40.15
2022-12-10T13:31:18.455Z,37.75
2022-12-10T13:35:08.819Z,36.47
2022-12-10T13:37:30.685Z,35.97
2022-12-10T13:39:35.415Z,39.08
2022-12-10T13:41:41.111Z,37.80
2022-12-10T13:43:58.426Z,45.75
2022-12-10T13:45:46.018Z,43.88
2022-12-10T13:47:36.301Z,27.35
2022-12-10T13:49:26.680Z,37.15
2022-12-10T13:51:28.080Z,36.22
2022-12-10T13:53:18.408Z,39.85
2022-12-10T13:55:22.130Z,36.33
2022-12-10T13:57:54.321Z,33.78
2022-12-10T13:59:47.648Z,36.78
2022-12-10T14:01:53.222Z,37.60
2022-12-10T14:03:55.826Z,40.38
2022-12-10T14:06:10.571Z,40.47
2022-12-10T14:08:00.986Z,40.40
2022-12-10T14:09:56.971Z,42.35
2022-12-10T14:12:07.383Z,39.58
2022-12-10T14:14:00.940Z,35.90
2022-12-10T14:16:01.598Z,38.33
2022-12-10T14:17:51.931Z,44.28
2022-12-10T14:19:40.121Z,40.63
2022-12-10T14:21:32.322Z,37.60
2022-12-10T14:23:48.566Z,40.53
2022-12-10T14:25:43.075Z,42.30
2022-12-10T14:27:30.568Z,38.22
2022-12-10T14:29:27.425Z,42.20
2022-12-10T14:31:37.620Z,40.08
2022-12-10T14:33:26.432Z,40.67
2022-12-10T14:35:26.098Z,41.15
2022-12-10T14:37:15.554Z,41.33
2022-12-10T14:39:03.705Z,37.78
2022-12-10T14:40:51.007Z,35.30
2022-12-10T14:42:40.825Z,34.78
2022-12-10T14:44:30.710Z,37.85
2022-12-10T14:46:25.332Z,40.78
2022-12-10T14:48:14.060Z,47.90
2022-12-10T14:50:02.868Z,51.22
2022-12-10T14:51:50.152Z,55.25
2022-12-10T14:53:37.844Z,52.65
2022-12-10T14:55:25.471Z,39.47
2022-12-10T14:57:36.208Z,38.85
2022-12-10T14:59:46.801Z,39.85
2022-12-10T15:01:41.781Z,44.00
2022-12-10T15:03:33.262Z,49.25
2022-12-10T15:05:32.895Z,42.03
2022-12-10T15:07:38.819Z,44.03
2022-12-10T15:09:27.383Z,35.63
2022-12-10T15:11:20.211Z,36.08
2022-12-10T15:13:17.623Z,38.55
2022-12-10T15:15:24.941Z,38.65
2022-12-10T15:19:51.622Z,37.03
2022-12-10T15:21:44.542Z,42.72
2022-12-10T15:23:34.665Z,43.63
2022-12-10T15:25:29.941Z,43.05
2022-12-10T15:27:21.462Z,43.65
2022-12-10T15:29:28.395Z,40.90
2022-12-10T15:31:27.878Z,39.42
2022-12-10T15:33:31.379Z,43.50
2022-12-10T15:35:18.836Z,52.00
2022-12-10T15:37:06.907Z,41.15
2022-12-10T15:38:54.266Z,39.92
2022-12-10T15:40:41.757Z,38.53
2022-12-10T15:42:39.576Z,40.30
2022-12-10T15:44:28.561Z,40.17
2022-12-10T15:46:19.305Z,39.47
2022-12-10T15:48:12.606Z,38.05
2022-12-10T15:49:59.920Z,38.17
2022-12-10T15:51:47.626Z,49.05
2022-12-10T15:53:39.071Z,44.28
2022-12-10T15:55:26.155Z,42.88
2022-12-10T15:57:21.800Z,44.85
2022-12-10T15:59:09.873Z,44.70
2022-12-10T16:00:56.977Z,46.65
2022-12-10T16:02:51.669Z,48.78
2022-12-10T16:04:38.821Z,46.92
2022-12-10T16:06:25.906Z,50.90
2022-12-10T16:08:28.894Z,40.92
2022-12-10T16:10:19.322Z,38.42
2022-12-10T16:12:08.479Z,43.78
2022-12-10T16:13:57.823Z,41.55
2022-12-10T16:16:00.921Z,40.28
2022-12-10T16:17:48.338Z,36.15
2022-12-10T16:19:37.767Z,38.53
2022-12-10T16:21:24.981Z,37.85
2022-12-10T16:23:15.424Z,39.70
2022-12-10T16:25:02.941Z,47.75
2022-12-10T16:26:50.010Z,47.00
2022-12-10T16:28:37.109Z,46.97
2022-12-10T16:30:45.718Z,42.20
2022-12-10T16:32:35.659Z,42.13
2022-12-10T16:34:22.749Z,40.53
2022-12-10T16:36:12.735Z,39.70
2022-12-10T16:38:04.520Z,40.30
2022-12-10T16:40:00.042Z,41.28
2022-12-10T16:41:53.933Z,45.63
2022-12-10T16:43:41.243Z,43.33
2022-12-10T16:45:32.431Z,45.25
2022-12-10T16:47:20.118Z,42.53
2022-12-10T16:49:07.854Z,40.55
2022-12-10T16:51:03.802Z,42.40
2022-12-10T16:52:57.641Z,42.40
2022-12-10T16:54:45.439Z,40.83
2022-12-10T16:56:32.897Z,39.58
2022-12-10T16:58:20.802Z,38.90
2022-12-10T17:00:09.211Z,43.35
2022-12-10T17:01:58.186Z,50.50
2022-12-10T17:03:45.704Z,50.30
2022-12-10T17:05:37.159Z,45.00
2022-12-10T17:07:24.933Z,44.83
2022-12-10T17:09:12.831Z,46.22
2022-12-10T17:11:23.247Z,47.80
2022-12-10T17:13:14.796Z,57.05
2022-12-10T17:15:05.074Z,60.85
2022-12-10T17:16:56.812Z,64.22
2022-12-10T17:18:44.042Z,54.83
2022-12-10T17:20:31.674Z,54.15
2022-12-10T17:22:18.952Z,58.67
2022-12-10T17:24:06.808Z,44.58
2022-12-10T17:25:54.612Z,45.10
2022-12-10T17:27:42.686Z,50.58
2022-12-10T17:31:22.504Z,48.70
2022-12-10T17:33:17.243Z,46.45
2022-12-10T17:35:04.628Z,46.60
2022-12-10T17:36:52.721Z,43.30
2022-12-10T17:38:39.907Z,59.85
2022-12-10T17:40:27.113Z,52.00
2022-12-10T17:42:14.543Z,45.63
2022-12-10T17:44:01.596Z,55.28
2022-12-10T17:45:49.147Z,47.83
2022-12-10T17:47:36.856Z,42.65
2022-12-10T17:49:24.405Z,40.72
2022-12-10T17:51:13.882Z,39.00
2022-12-10T17:53:03.274Z,39.83
2022-12-10T17:54:50.399Z,37.17
2022-12-10T17:56:38.181Z,38.67
2022-12-10T17:58:27.262Z,34.33
2022-12-10T18:00:17.958Z,36.53
2022-12-10T18:02:05.068Z,36.70
2022-12-10T18:03:52.956Z,35.30
2022-12-10T18:05:40.978Z,36.30
2022-12-10T18:07:28.296Z,36.80
2022-12-10T18:09:16.433Z,39.60
2022-12-10T18:12:54.853Z,37.25
2022-12-10T18:14:43.342Z,37.45
2022-12-10T18:16:33.665Z,38.80
2022-12-10T18:18:21.175Z,38.22
2022-12-10T18:20:09.734Z,45.78
2022-12-10T18:21:57.359Z,47.45
2022-12-10T18:23:46.860Z,45.42
2022-12-10T18:25:35.343Z,42.05
2022-12-10T18:27:23.610Z,49.50
2022-12-10T18:29:15.673Z,46.88
2022-12-10T18:31:03.277Z,114.25
2022-12-10T18:32:51.878Z,129.32
2022-12-10T18:34:39.197Z,59.15
2022-12-10T18:36:30.760Z,46.38
2022-12-10T18:38:18.983Z,45.65
2022-12-10T18:40:08.762Z,40.17
2022-12-10T18:41:56.194Z,42.50
2022-12-10T18:43:43.786Z,44.72
2022-12-10T18:45:31.678Z,44.53
2022-12-10T18:47:19.296Z,56.20
2022-12-10T18:49:06.754Z,29.88
2022-12-10T18:50:55.426Z,56.33
2022-12-10T18:52:43.000Z,60.20
2022-12-10T18:54:30.157Z,44.53
2022-12-10T18:56:23.403Z,40.00
2022-12-10T18:58:10.938Z,64.22
2022-12-10T18:59:58.110Z,41.50
2022-12-10T19:01:46.286Z,59.97
2022-12-10T19:03:34.309Z,69.38
2022-12-10T19:05:21.583Z,76.72
2022-12-10T19:07:13.228Z,60.95
2022-12-10T19:11:08.501Z,64.72
2022-12-10T19:12:55.799Z,45.15
2022-12-10T19:14:43.253Z,45.78
2022-12-10T19:16:30.842Z,45.00
2022-12-10T19:18:18.127Z,45.78
2022-12-10T19:20:12.599Z,45.05
2022-12-10T19:21:59.874Z,51.03
2022-12-10T19:23:47.684Z,54.42
2022-12-10T19:25:36.137Z,44.92
2022-12-10T19:27:24.516Z,42.92
2022-12-10T19:29:20.116Z,46.80
2022-12-10T19:31:07.667Z,40.80
2022-12-10T19:32:54.961Z,41.08
2022-12-10T19:34:42.148Z,47.20
2022-12-10T19:36:31.101Z,43.45
2022-12-10T19:38:18.599Z,46.42
2022-12-10T19:40:07.093Z,41.65
2022-12-10T19:41:55.842Z,44.25
2022-12-10T19:43:44.053Z,43.28
2022-12-10T19:45:33.538Z,43.28
2022-12-10T19:47:21.615Z,38.83
2022-12-10T19:49:13.884Z,39.90
2022-12-10T19:51:01.891Z,36.97
2022-12-10T19:52:50.207Z,38.25
2022-12-10T19:56:33.660Z,39.13
2022-12-10T19:58:21.351Z,41.60
2022-12-10T20:00:14.623Z,43.88
2022-12-10T20:02:01.912Z,39.83
2022-12-10T20:03:49.725Z,36.80
2022-12-10T20:05:37.460Z,37.90
2022-12-10T20:07:25.416Z,39.42
2022-12-10T20:09:25.166Z,36.17
2022-12-10T20:11:16.361Z,34.35
2022-12-10T20:13:04.756Z,34.05
2022-12-10T20:14:52.294Z,35.42
2022-12-10T20:16:40.854Z,36.67
2022-12-10T20:18:29.025Z,35.25
2022-12-10T20:20:26.301Z,35.28
2022-12-10T20:22:14.242Z,35.30
2022-12-10T20:25:52.002Z,33.60
2022-12-10T20:29:28.426Z,32.83
2022-12-10T20:31:17.878Z,35.28
2022-12-10T20:33:37.596Z,37.22
2022-12-10T20:35:15.272Z,33.88
2022-12-10T20:37:03.691Z,34.88
2022-12-10T20:38:52.044Z,36.03
2022-12-10T20:40:40.127Z,33.88
2022-12-10T20:42:31.090Z,35.75
2022-12-10T20:44:22.027Z,33.10
2022-12-10T20:46:40.600Z,34.42
2022-12-10T20:48:28.577Z,40.28
2022-12-10T20:50:20.094Z,37.80
2022-12-10T20:52:07.648Z,48.60
2022-12-10T20:53:55.353Z,44.47
2022-12-10T20:55:42.710Z,35.75
2022-12-10T20:57:29.711Z,34.42
2022-12-10T20:59:17.708Z,30.20
2022-12-10T21:01:05.010Z,27.40
2022-12-10T21:02:52.485Z,28.58
2022-12-10T21:04:39.890Z,25.77
2022-12-10T21:06:30.074Z,24.95
2022-12-10T21:08:21.892Z,28.92
2022-12-10T21:10:37.558Z,29.23
2022-12-10T21:12:25.132Z,24.80
2022-12-10T21:16:25.479Z,26.23
2022-12-10T21:18:13.384Z,40.30
2022-12-10T21:20:00.874Z,46.80
2022-12-10T21:21:48.341Z,34.35
2022-12-10T21:23:35.859Z,28.67
2022-12-10T21:25:23.756Z,31.40
2022-12-10T21:27:12.724Z,28.67
2022-12-10T21:29:00.194Z,28.83
2022-12-10T21:32:36.249Z,28.52
2022-12-10T21:36:13.304Z,29.58
2022-12-10T21:38:01.012Z,27.08
2022-12-10T21:41:54.241Z,28.10
2022-12-10T21:43:41.380Z,28.05
2022-12-10T21:45:29.909Z,29.35
2022-12-10T21:47:17.266Z,29.45
2022-12-10T21:49:04.463Z,28.77
2022-12-10T21:51:01.781Z,27.92
2022-12-10T21:52:49.284Z,30.63
2022-12-10T21:54:36.590Z,42.33
2022-12-10T21:56:25.013Z,43.17
2022-12-10T21:58:13.534Z,30.17
2022-12-10T22:00:02.791Z,31.48
2022-12-10T22:01:58.742Z,30.00
2022-12-10T22:03:46.425Z,29.27
2022-12-10T22:05:33.923Z,30.65
2022-12-10T22:07:22.464Z,31.88
2022-12-10T22:09:09.902Z,40.10
2022-12-10T22:10:56.896Z,32.20
2022-12-10T22:12:44.596Z,32.85
2022-12-10T22:14:32.074Z,32.00
2022-12-10T22:16:19.169Z,32.33
2022-12-10T22:18:07.853Z,32.83
2022-12-10T22:19:55.829Z,32.75
2022-12-10T22:21:42.773Z,35.15
2022-12-10T22:23:30.339Z,34.30
2022-12-10T22:25:17.610Z,34.40
2022-12-10T22:27:04.910Z,61.90
2022-12-10T22:28:52.133Z,45.40
2022-12-10T22:30:40.661Z,39.90
2022-12-10T22:32:28.651Z,41.22
2022-12-10T22:34:15.763Z,50.90
2022-12-10T22:36:03.458Z,53.92
2022-12-10T22:37:53.968Z,34.35
2022-12-10T22:39:41.047Z,30.17
2022-12-10T22:41:28.349Z,29.85
2022-12-10T22:43:48.472Z,29.33
2022-12-10T22:45:22.575Z,48.20
2022-12-10T22:47:09.921Z,38.45
2022-12-10T22:48:57.104Z,35.63
2022-12-10T22:50:44.176Z,35.58
2022-12-10T22:52:31.872Z,29.65
2022-12-10T22:54:19.022Z,32.58
2022-12-10T22:56:07.948Z,30.50
2022-12-10T22:57:55.341Z,31.67
2022-12-10T22:59:43.910Z,31.42
2022-12-10T23:01:31.306Z,42.53
2022-12-10T23:03:19.445Z,55.72
2022-12-10T23:05:07.529Z,29.63
2022-12-10T23:06:55.087Z,53.58
2022-12-10T23:08:43.153Z,30.55
2022-12-10T23:10:30.212Z,32.88
2022-12-10T23:12:35.757Z,54.53
2022-12-10T23:14:23.035Z,40.60
2022-12-10T23:16:17.843Z,50.83
2022-12-10T23:18:05.227Z,29.55
2022-12-10T23:19:52.575Z,41.03
2022-12-10T23:21:40.031Z,33.08
2022-12-10T23:23:27.144Z,31.20
2022-12-10T23:25:14.655Z,29.17
2022-12-10T23:27:01.724Z,29.58
2022-12-10T23:28:50.269Z,27.13
2022-12-10T23:30:37.667Z,28.55
2022-12-10T23:32:24.795Z,30.05
2022-12-10T23:34:11.934Z,34.73
2022-12-10T23:35:59.262Z,35.40
2022-12-10T23:37:46.318Z,37.57
2022-12-10T23:39:33.553Z,28.90
2022-12-10T23:41:20.861Z,28.52
2022-12-10T23:43:07.955Z,37.63
2022-12-10T23:44:55.169Z,29.17
2022-12-10T23:46:42.552Z,29.38
2022-12-10T23:48:29.720Z,26.43
2022-12-10T23:50:17.204Z,28.35
2022-12-10T23:52:09.648Z,27.17
2022-12-10T23:53:57.139Z,25.77
2022-12-10T23:55:44.429Z,27.42
2022-12-10T23:57:31.995Z,27.67
2022-12-10T23:59:18.980Z,27.05
